sensor_id;sensor_type;location;lat;lon;timestamp;pressure;altitude;pressure_sealevel;temperature;humidity
74881;BME280;63427;49.654;6.596;2024-03-23T00:54:04;98948.06;;;12.29;43.66
74881;BME280;63427;49.654;6.596;2024-03-23T00:56:38;98947.70;;;12.53;43.22
74881;BME280;63427;49.654;6.596;2024-03-23T01:01:21;98943.67;;;12.70;43.36
74881;BME280;63427;49.654;6.596;2024-03-23T01:03:46;98944.20;;;12.37;43.65
74881;BME280;63427;49.654;6.596;2024-03-23T01:06:12;98951.12;;;12.65;43.33
74881;BME280;63427;49.654;6.596;2024-03-23T01:08:37;98951.06;;;12.82;43.21
74881;BME280;63427;49.654;6.596;2024-03-23T01:11:03;98934.32;;;12.76;42.79
74881;BME280;63427;49.654;6.596;2024-03-23T01:14:03;98941.04;;;12.46;43.22
74881;BME280;63427;49.654;6.596;2024-03-23T01:18:38;98941.19;;;12.47;43.12
74881;BME280;63427;49.654;6.596;2024-03-23T01:25:34;98947.92;;;12.69;42.51
74881;BME280;63427;49.654;6.596;2024-03-23T01:28:02;98938.88;;;12.71;42.95
74881;BME280;63427;49.654;6.596;2024-03-23T01:30:25;98941.06;;;12.99;42.55
74881;BME280;63427;49.654;6.596;2024-03-23T01:32:50;98928.51;;;12.89;43.09
74881;BME280;63427;49.654;6.596;2024-03-23T01:35:15;98925.32;;;12.34;43.78
74881;BME280;63427;49.654;6.596;2024-03-23T01:37:41;98920.05;;;12.71;43.58
74881;BME280;63427;49.654;6.596;2024-03-23T01:40:16;98913.63;;;13.01;43.14
74881;BME280;63427;49.654;6.596;2024-03-23T01:45:01;98898.88;;;12.95;43.22
74881;BME280;63427;49.654;6.596;2024-03-23T01:47:22;98903.70;;;12.85;42.30
74881;BME280;63427;49.654;6.596;2024-03-23T01:52:12;98903.93;;;13.00;43.01
74881;BME280;63427;49.654;6.596;2024-03-23T01:54:39;98901.84;;;12.93;42.94
74881;BME280;63427;49.654;6.596;2024-03-23T01:57:13;98897.83;;;13.11;43.24
74881;BME280;63427;49.654;6.596;2024-03-23T01:59:29;98903.72;;;12.92;43.41
74881;BME280;63427;49.654;6.596;2024-03-23T02:01:54;98898.88;;;12.60;43.99
74881;BME280;63427;49.654;6.596;2024-03-23T02:04:40;98896.27;;;12.82;43.77
74881;BME280;63427;49.654;6.596;2024-03-23T02:06:45;98900.53;;;12.75;44.06
74881;BME280;63427;49.654;6.596;2024-03-23T02:11:36;98896.86;;;13.21;42.92
74881;BME280;63427;49.654;6.596;2024-03-23T02:14:02;98897.05;;;12.83;43.27
74881;BME280;63427;49.654;6.596;2024-03-23T02:16:38;98898.55;;;13.16;42.82
74881;BME280;63427;49.654;6.596;2024-03-23T02:18:52;98902.97;;;12.95;43.24
74881;BME280;63427;49.654;6.596;2024-03-23T02:21:21;98911.94;;;12.73;43.88
74881;BME280;63427;49.654;6.596;2024-03-23T02:27:02;98921.48;;;12.80;44.18
74881;BME280;63427;49.654;6.596;2024-03-23T02:28:34;98926.67;;;12.81;43.83
74881;BME280;63427;49.654;6.596;2024-03-23T02:31:00;98936.52;;;12.60;43.65
74881;BME280;63427;49.654;6.596;2024-03-23T02:35:56;98948.23;;;12.05;40.98
74881;BME280;63427;49.654;6.596;2024-03-23T02:38:16;98959.24;;;12.33;40.85
74881;BME280;63427;49.654;6.596;2024-03-23T02:43:07;98974.87;;;12.05;40.54
74881;BME280;63427;49.654;6.596;2024-03-23T02:45:47;98983.60;;;11.57;40.89
74881;BME280;63427;49.654;6.596;2024-03-23T02:50:24;98996.21;;;11.61;40.84
74881;BME280;63427;49.654;6.596;2024-03-23T02:57:41;99010.22;;;11.89;39.45
74881;BME280;63427;49.654;6.596;2024-03-23T03:02:32;99013.21;;;11.80;39.49
74881;BME280;63427;49.654;6.596;2024-03-23T03:04:57;99019.25;;;11.82;39.55
74881;BME280;63427;49.654;6.596;2024-03-23T03:07:23;99018.87;;;11.74;40.07
74881;BME280;63427;49.654;6.596;2024-03-23T03:09:48;99023.29;;;11.78;39.99
74881;BME280;63427;49.654;6.596;2024-03-23T03:12:14;99030.67;;;11.56;40.29
74881;BME280;63427;49.654;6.596;2024-03-23T03:14:40;99033.03;;;11.77;40.77
74881;BME280;63427;49.654;6.596;2024-03-23T03:17:05;99024.40;;;11.95;40.47
74881;BME280;63427;49.654;6.596;2024-03-23T03:19:32;99022.19;;;11.68;40.11
74881;BME280;63427;49.654;6.596;2024-03-23T03:21:56;99024.21;;;11.64;40.29
74881;BME280;63427;49.654;6.596;2024-03-23T03:24:22;99024.72;;;11.73;40.42
74881;BME280;63427;49.654;6.596;2024-03-23T03:26:48;99020.61;;;11.89;40.16
74881;BME280;63427;49.654;6.596;2024-03-23T03:31:39;99027.11;;;11.83;39.79
74881;BME280;63427;49.654;6.596;2024-03-23T03:34:04;99029.99;;;11.84;40.31
74881;BME280;63427;49.654;6.596;2024-03-23T03:36:30;99035.55;;;12.10;40.20
74881;BME280;63427;49.654;6.596;2024-03-23T03:38:58;99039.68;;;11.94;40.14
74881;BME280;63427;49.654;6.596;2024-03-23T03:41:21;99043.76;;;11.82;40.42
74881;BME280;63427;49.654;6.596;2024-03-23T03:46:12;99040.45;;;11.65;40.79
74881;BME280;63427;49.654;6.596;2024-03-23T03:48:38;99046.45;;;11.54;41.25
74881;BME280;63427;49.654;6.596;2024-03-23T03:51:04;99046.97;;;11.53;41.25
74881;BME280;63427;49.654;6.596;2024-03-23T03:53:29;99051.80;;;11.28;41.29
74881;BME280;63427;49.654;6.596;2024-03-23T03:55:54;99058.23;;;11.48;41.60
74881;BME280;63427;49.654;6.596;2024-03-23T03:58:20;99059.50;;;11.24;41.35
74881;BME280;63427;49.654;6.596;2024-03-23T04:00:46;99055.71;;;11.24;41.49
74881;BME280;63427;49.654;6.596;2024-03-23T04:03:11;99049.41;;;10.97;41.96
74881;BME280;63427;49.654;6.596;2024-03-23T04:05:37;99047.65;;;11.39;41.91
74881;BME280;63427;49.654;6.596;2024-03-23T04:08:03;99056.47;;;11.19;41.90
74881;BME280;63427;49.654;6.596;2024-03-23T04:10:28;99066.15;;;10.82;42.41
74881;BME280;63427;49.654;6.596;2024-03-23T04:12:54;99074.77;;;11.38;41.99
74881;BME280;63427;49.654;6.596;2024-03-23T04:15:19;99084.10;;;11.40;42.24
74881;BME280;63427;49.654;6.596;2024-03-23T04:17:45;99079.83;;;10.73;43.29
74881;BME280;63427;49.654;6.596;2024-03-23T04:20:11;99082.02;;;10.91;42.90
74881;BME280;63427;49.654;6.596;2024-03-23T04:22:36;99085.62;;;10.70;42.56
74881;BME280;63427;49.654;6.596;2024-03-23T04:25:02;99092.72;;;10.91;42.34
74881;BME280;63427;49.654;6.596;2024-03-23T04:27:27;99093.26;;;11.09;42.08
74881;BME280;63427;49.654;6.596;2024-03-23T04:29:56;99094.27;;;10.80;41.48
74881;BME280;63427;49.654;6.596;2024-03-23T04:32:19;99090.41;;;10.63;41.42
74881;BME280;63427;49.654;6.596;2024-03-23T04:37:10;99100.55;;;10.56;41.44
74881;BME280;63427;49.654;6.596;2024-03-23T04:39:36;99107.91;;;10.53;41.74
74881;BME280;63427;49.654;6.596;2024-03-23T04:42:01;99113.10;;;10.67;41.28
74881;BME280;63427;49.654;6.596;2024-03-23T04:44:45;99117.95;;;10.76;40.14
74881;BME280;63427;49.654;6.596;2024-03-23T04:49:18;99124.53;;;10.49;40.82
74881;BME280;63427;49.654;6.596;2024-03-23T04:51:44;99131.24;;;10.61;40.26
74881;BME280;63427;49.654;6.596;2024-03-23T04:54:09;99130.61;;;10.75;40.34
74881;BME280;63427;49.654;6.596;2024-03-23T04:56:35;99125.66;;;10.75;39.23
74881;BME280;63427;49.654;6.596;2024-03-23T04:59:00;99133.43;;;10.95;39.45
74881;BME280;63427;49.654;6.596;2024-03-23T05:06:17;99137.60;;;10.81;38.84
74881;BME280;63427;49.654;6.596;2024-03-23T05:08:43;99134.02;;;10.32;39.79
74881;BME280;63427;49.654;6.596;2024-03-23T05:11:09;99135.49;;;10.79;40.23
74881;BME280;63427;49.654;6.596;2024-03-23T05:13:34;99130.56;;;10.46;40.29
74881;BME280;63427;49.654;6.596;2024-03-23T05:16:00;99139.99;;;10.80;39.97
74881;BME280;63427;49.654;6.596;2024-03-23T05:18:25;99151.74;;;11.01;40.22
74881;BME280;63427;49.654;6.596;2024-03-23T05:21:43;99158.49;;;10.99;40.07
74881;BME280;63427;49.654;6.596;2024-03-23T05:23:17;99163.70;;;10.68;39.67
74881;BME280;63427;49.654;6.596;2024-03-23T05:25:42;99166.89;;;10.56;39.66
74881;BME280;63427;49.654;6.596;2024-03-23T05:28:08;99176.88;;;10.77;39.60
74881;BME280;63427;49.654;6.596;2024-03-23T05:30:33;99187.94;;;10.59;39.65
74881;BME280;63427;49.654;6.596;2024-03-23T05:32:59;99185.64;;;10.37;39.62
74881;BME280;63427;49.654;6.596;2024-03-23T05:37:50;99189.15;;;10.18;39.36
74881;BME280;63427;49.654;6.596;2024-03-23T05:43:01;99202.35;;;9.70;39.38
74881;BME280;63427;49.654;6.596;2024-03-23T05:45:17;99204.05;;;10.27;39.66
74881;BME280;63427;49.654;6.596;2024-03-23T05:47:33;99206.58;;;10.16;39.37
74881;BME280;63427;49.654;6.596;2024-03-23T05:50:10;99206.82;;;10.24;39.57
74881;BME280;63427;49.654;6.596;2024-03-23T05:52:38;99209.53;;;10.17;38.87
74881;BME280;63427;49.654;6.596;2024-03-23T05:55:01;99203.32;;;10.07;39.62
74881;BME280;63427;49.654;6.596;2024-03-23T05:57:16;99204.40;;;10.01;39.93
74881;BME280;63427;49.654;6.596;2024-03-23T06:00:02;99211.31;;;9.82;39.66
74881;BME280;63427;49.654;6.596;2024-03-23T06:04:33;99225.31;;;10.22;39.54
74881;BME280;63427;49.654;6.596;2024-03-23T06:07:02;99231.87;;;10.09;38.85
74881;BME280;63427;49.654;6.596;2024-03-23T06:09:24;99238.18;;;10.23;39.68
74881;BME280;63427;49.654;6.596;2024-03-23T06:11:50;99248.14;;;10.03;39.37
74881;BME280;63427;49.654;6.596;2024-03-23T06:14:15;99251.29;;;10.22;38.44
74881;BME280;63427;49.654;6.596;2024-03-23T06:16:41;99258.45;;;10.12;39.19
74881;BME280;63427;49.654;6.596;2024-03-23T06:20:01;99265.06;;;10.03;39.01
74881;BME280;63427;49.654;6.596;2024-03-23T06:21:36;99261.06;;;10.03;38.61
74881;BME280;63427;49.654;6.596;2024-03-23T06:23:58;99266.89;;;9.91;38.94
74881;BME280;63427;49.654;6.596;2024-03-23T06:26:23;99269.96;;;9.72;39.57
74881;BME280;63427;49.654;6.596;2024-03-23T06:28:49;99271.74;;;9.51;39.43
74881;BME280;63427;49.654;6.596;2024-03-23T06:33:40;99274.94;;;10.00;40.37
74881;BME280;63427;49.654;6.596;2024-03-23T06:36:11;99284.11;;;10.14;39.16
74881;BME280;63427;49.654;6.596;2024-03-23T06:38:32;99288.06;;;10.21;39.18
74881;BME280;63427;49.654;6.596;2024-03-23T06:40:57;99293.00;;;9.98;38.98
74881;BME280;63427;49.654;6.596;2024-03-23T06:43:23;99292.38;;;10.33;39.06
74881;BME280;63427;49.654;6.596;2024-03-23T06:48:16;99292.72;;;10.40;39.75
74881;BME280;63427;49.654;6.596;2024-03-23T06:50:40;99293.92;;;10.38;39.14
74881;BME280;63427;49.654;6.596;2024-03-23T06:53:05;99292.14;;;10.12;38.88
74881;BME280;63427;49.654;6.596;2024-03-23T06:55:31;99295.90;;;10.51;38.63
74881;BME280;63427;49.654;6.596;2024-03-23T06:57:56;99300.29;;;10.34;39.27
74881;BME280;63427;49.654;6.596;2024-03-23T07:00:22;99302.84;;;10.24;37.82
74881;BME280;63427;49.654;6.596;2024-03-23T07:02:48;99303.54;;;10.06;38.89
74881;BME280;63427;49.654;6.596;2024-03-23T07:07:39;99307.08;;;10.31;38.81
74881;BME280;63427;49.654;6.596;2024-03-23T07:12:30;99321.61;;;10.67;37.96
74881;BME280;63427;49.654;6.596;2024-03-23T07:14:56;99326.21;;;10.47;38.00
74881;BME280;63427;49.654;6.596;2024-03-23T07:17:21;99322.67;;;10.08;38.94
74881;BME280;63427;49.654;6.596;2024-03-23T07:22:13;99321.78;;;10.16;38.81
74881;BME280;63427;49.654;6.596;2024-03-23T07:24:42;99323.15;;;10.25;39.75
74881;BME280;63427;49.654;6.596;2024-03-23T07:27:04;99325.31;;;10.26;38.72
74881;BME280;63427;49.654;6.596;2024-03-23T07:29:29;99323.10;;;10.26;38.64
74881;BME280;63427;49.654;6.596;2024-03-23T07:31:54;99319.55;;;10.32;38.84
74881;BME280;63427;49.654;6.596;2024-03-23T07:34:20;99323.69;;;10.19;38.05
74881;BME280;63427;49.654;6.596;2024-03-23T07:36:45;99327.57;;;10.30;38.13
74881;BME280;63427;49.654;6.596;2024-03-23T07:39:10;99329.51;;;10.43;37.93
74881;BME280;63427;49.654;6.596;2024-03-23T07:41:36;99330.39;;;10.44;38.22
74881;BME280;63427;49.654;6.596;2024-03-23T07:44:01;99331.99;;;10.19;38.50
74881;BME280;63427;49.654;6.596;2024-03-23T07:48:52;99334.39;;;10.50;38.01
74881;BME280;63427;49.654;6.596;2024-03-23T07:51:20;99337.51;;;10.61;38.10
74881;BME280;63427;49.654;6.596;2024-03-23T07:53:44;99336.16;;;10.30;36.99
74881;BME280;63427;49.654;6.596;2024-03-23T07:56:15;99334.68;;;10.33;37.62
74881;BME280;63427;49.654;6.596;2024-03-23T07:58:34;99338.28;;;10.32;37.73
74881;BME280;63427;49.654;6.596;2024-03-23T08:01:05;99341.85;;;10.45;36.88
74881;BME280;63427;49.654;6.596;2024-03-23T08:03:25;99339.52;;;10.38;37.14
74881;BME280;63427;49.654;6.596;2024-03-23T08:05:50;99339.66;;;10.37;37.02
74881;BME280;63427;49.654;6.596;2024-03-23T08:08:16;99338.95;;;10.57;37.29
74881;BME280;63427;49.654;6.596;2024-03-23T08:13:07;99338.66;;;10.33;37.10
74881;BME280;63427;49.654;6.596;2024-03-23T08:15:32;99344.31;;;10.86;37.88
74881;BME280;63427;49.654;6.596;2024-03-23T08:17:58;99347.56;;;11.28;37.72
74881;BME280;63427;49.654;6.596;2024-03-23T08:20:23;99346.23;;;11.08;36.41
74881;BME280;63427;49.654;6.596;2024-03-23T08:22:52;99345.64;;;11.40;36.86
74881;BME280;63427;49.654;6.596;2024-03-23T08:25:14;99348.50;;;11.28;35.55
74881;BME280;63427;49.654;6.596;2024-03-23T08:34:56;99348.86;;;10.79;36.30
74881;BME280;63427;49.654;6.596;2024-03-23T08:39:46;99350.24;;;12.63;33.52
74881;BME280;63427;49.654;6.596;2024-03-23T08:42:11;99347.83;;;12.77;32.82
74881;BME280;63427;49.654;6.596;2024-03-23T08:44:36;99347.98;;;12.28;32.83
74881;BME280;63427;49.654;6.596;2024-03-23T08:47:02;99347.99;;;12.00;33.33
74881;BME280;63427;49.654;6.596;2024-03-23T08:51:53;99358.40;;;11.30;33.85
74881;BME280;63427;49.654;6.596;2024-03-23T08:56:44;99360.21;;;12.28;32.60
74881;BME280;63427;49.654;6.596;2024-03-23T08:59:09;99367.69;;;12.48;31.58
74881;BME280;63427;49.654;6.596;2024-03-23T09:04:00;99369.45;;;11.81;31.37
74881;BME280;63427;49.654;6.596;2024-03-23T09:06:26;99363.39;;;13.02;30.98
74881;BME280;63427;49.654;6.596;2024-03-23T09:08:52;99359.49;;;13.77;29.47
74881;BME280;63427;49.654;6.596;2024-03-23T09:11:17;99360.37;;;13.81;28.87
74881;BME280;63427;49.654;6.596;2024-03-23T09:13:43;99363.99;;;12.60;29.66
74881;BME280;63427;49.654;6.596;2024-03-23T09:16:08;99359.01;;;12.52;30.16
74881;BME280;63427;49.654;6.596;2024-03-23T09:18:38;99357.94;;;13.19;29.75
74881;BME280;63427;49.654;6.596;2024-03-23T09:20:59;99356.77;;;12.60;29.82
74881;BME280;63427;49.654;6.596;2024-03-23T09:23:25;99356.62;;;12.63;29.58
74881;BME280;63427;49.654;6.596;2024-03-23T09:25:50;99367.11;;;13.00;30.15
74881;BME280;63427;49.654;6.596;2024-03-23T09:28:16;99365.33;;;13.52;30.32
74881;BME280;63427;49.654;6.596;2024-03-23T09:30:41;99374.14;;;13.09;28.86
74881;BME280;63427;49.654;6.596;2024-03-23T09:33:07;99357.09;;;14.10;28.46
74881;BME280;63427;49.654;6.596;2024-03-23T09:35:32;99359.98;;;13.06;29.43
74881;BME280;63427;49.654;6.596;2024-03-23T09:37:57;99353.66;;;13.61;29.63
74881;BME280;63427;49.654;6.596;2024-03-23T09:40:29;99351.11;;;13.34;28.09
74881;BME280;63427;49.654;6.596;2024-03-23T09:42:58;99345.45;;;13.24;28.79
74881;BME280;63427;49.654;6.596;2024-03-23T09:45:23;99338.44;;;13.82;28.71
74881;BME280;63427;49.654;6.596;2024-03-23T09:50:05;99334.12;;;13.69;27.25
74881;BME280;63427;49.654;6.596;2024-03-23T09:52:30;99326.02;;;14.06;28.11
74881;BME280;63427;49.654;6.596;2024-03-23T09:54:55;99329.63;;;13.97;27.66
74881;BME280;63427;49.654;6.596;2024-03-23T09:57:21;99324.67;;;14.15;27.12
74881;BME280;63427;49.654;6.596;2024-03-23T09:59:46;99322.41;;;14.43;27.48
74881;BME280;63427;49.654;6.596;2024-03-23T10:02:12;99317.96;;;14.60;26.60
74881;BME280;63427;49.654;6.596;2024-03-23T10:09:29;99302.84;;;15.36;25.78
74881;BME280;63427;49.654;6.596;2024-03-23T10:17:33;99306.47;;;15.40;24.78
74881;BME280;63427;49.654;6.596;2024-03-23T10:19:10;99304.52;;;15.44;24.93
74881;BME280;63427;49.654;6.596;2024-03-23T10:26:26;99315.08;;;14.09;26.68
74881;BME280;63427;49.654;6.596;2024-03-23T10:28:54;99309.66;;;13.17;27.11
74881;BME280;63427;49.654;6.596;2024-03-23T10:31:21;99310.07;;;13.15;27.55
74881;BME280;63427;49.654;6.596;2024-03-23T10:33:47;99318.58;;;12.56;28.88
74881;BME280;63427;49.654;6.596;2024-03-23T10:36:07;99322.98;;;12.76;27.87
74881;BME280;63427;49.654;6.596;2024-03-23T10:38:38;99326.37;;;13.11;27.27
74881;BME280;63427;49.654;6.596;2024-03-23T10:40:59;99330.75;;;13.04;27.35
74881;BME280;63427;49.654;6.596;2024-03-23T10:43:23;99333.58;;;13.89;27.41
74881;BME280;63427;49.654;6.596;2024-03-23T10:45:49;99345.61;;;13.70;27.71
74881;BME280;63427;49.654;6.596;2024-03-23T10:48:15;99396.71;;;12.03;30.68
74881;BME280;63427;49.654;6.596;2024-03-23T10:50:40;99427.99;;;9.75;36.94
74881;BME280;63427;49.654;6.596;2024-03-23T10:55:32;99454.13;;;9.49;36.88
74881;BME280;63427;49.654;6.596;2024-03-23T10:57:57;99443.85;;;9.89;37.40
74881;BME280;63427;49.654;6.596;2024-03-23T11:00:22;99437.58;;;10.17;37.26
74881;BME280;63427;49.654;6.596;2024-03-23T11:02:48;99424.86;;;10.37;36.98
74881;BME280;63427;49.654;6.596;2024-03-23T11:05:28;99425.17;;;10.66;36.27
74881;BME280;63427;49.654;6.596;2024-03-23T11:07:39;99421.00;;;10.88;35.90
74881;BME280;63427;49.654;6.596;2024-03-23T11:12:38;99416.42;;;11.17;35.24
74881;BME280;63427;49.654;6.596;2024-03-23T11:15:00;99411.91;;;11.75;36.80
74881;BME280;63427;49.654;6.596;2024-03-23T11:17:21;99413.97;;;12.66;34.78
74881;BME280;63427;49.654;6.596;2024-03-23T11:19:52;99421.33;;;12.95;36.10
74881;BME280;63427;49.654;6.596;2024-03-23T11:22:40;99416.12;;;13.31;33.22
74881;BME280;63427;49.654;6.596;2024-03-23T11:24:38;99410.63;;;12.25;35.47
74881;BME280;63427;49.654;6.596;2024-03-23T11:29:30;99400.81;;;13.62;35.56
74881;BME280;63427;49.654;6.596;2024-03-23T11:31:53;99383.45;;;14.04;31.32
74881;BME280;63427;49.654;6.596;2024-03-23T11:34:20;99376.63;;;13.99;32.17
74881;BME280;63427;49.654;6.596;2024-03-23T11:36:50;99385.94;;;13.77;31.43
74881;BME280;63427;49.654;6.596;2024-03-23T11:39:14;99378.96;;;14.25;31.14
74881;BME280;63427;49.654;6.596;2024-03-23T11:41:35;99376.15;;;13.21;32.19
74881;BME280;63427;49.654;6.596;2024-03-23T11:46:27;99370.53;;;12.90;31.34
74881;BME280;63427;49.654;6.596;2024-03-23T11:51:17;99359.67;;;13.48;30.71
74881;BME280;63427;49.654;6.596;2024-03-23T11:53:43;99366.74;;;13.56;30.72
74881;BME280;63427;49.654;6.596;2024-03-23T11:56:08;99363.54;;;13.36;31.46
74881;BME280;63427;49.654;6.596;2024-03-23T11:58:35;99351.08;;;14.44;29.95
74881;BME280;63427;49.654;6.596;2024-03-23T12:01:00;99342.39;;;15.05;29.12
74881;BME280;63427;49.654;6.596;2024-03-23T12:03:25;99337.88;;;14.91;29.30
74881;BME280;63427;49.654;6.596;2024-03-23T12:05:50;99333.57;;;15.18;28.30
74881;BME280;63427;49.654;6.596;2024-03-23T12:08:16;99327.12;;;15.70;28.58
74881;BME280;63427;49.654;6.596;2024-03-23T12:10:40;99316.40;;;15.24;28.28
74881;BME280;63427;49.654;6.596;2024-03-23T12:13:06;99308.42;;;15.83;26.35
74881;BME280;63427;49.654;6.596;2024-03-23T12:15:31;99300.55;;;15.03;27.06
74881;BME280;63427;49.654;6.596;2024-03-23T12:25:13;99275.10;;;16.60;25.78
74881;BME280;63427;49.654;6.596;2024-03-23T12:27:38;99266.47;;;16.34;25.39
74881;BME280;63427;49.654;6.596;2024-03-23T12:30:13;99271.23;;;16.13;24.42
74881;BME280;63427;49.654;6.596;2024-03-23T12:32:28;99261.56;;;14.15;26.48
74881;BME280;63427;49.654;6.596;2024-03-23T12:34:54;99272.28;;;14.60;27.37
74881;BME280;63427;49.654;6.596;2024-03-23T12:37:24;99275.81;;;15.85;26.78
74881;BME280;63427;49.654;6.596;2024-03-23T12:39:44;99288.54;;;15.24;26.75
74881;BME280;63427;49.654;6.596;2024-03-23T12:42:10;99309.53;;;13.14;31.02
74881;BME280;63427;49.654;6.596;2024-03-23T12:44:38;99301.33;;;12.74;30.21
74881;BME280;63427;49.654;6.596;2024-03-23T12:47:01;99293.40;;;13.03;30.93
74881;BME280;63427;49.654;6.596;2024-03-23T12:51:54;99307.61;;;11.57;33.20
74881;BME280;63427;49.654;6.596;2024-03-23T12:56:42;99302.11;;;14.53;30.94
74881;BME280;63427;49.654;6.596;2024-03-23T12:59:08;99294.79;;;15.61;30.46
74881;BME280;63427;49.654;6.596;2024-03-23T13:03:58;99291.26;;;15.20;29.29
74881;BME280;63427;49.654;6.596;2024-03-23T13:08:49;99284.10;;;15.49;28.35
74881;BME280;63427;49.654;6.596;2024-03-23T13:11:14;99290.21;;;15.10;29.59
74881;BME280;63427;49.654;6.596;2024-03-23T13:13:40;99285.75;;;14.63;28.02
74881;BME280;63427;49.654;6.596;2024-03-23T13:16:06;99290.92;;;13.82;28.87
74881;BME280;63427;49.654;6.596;2024-03-23T13:20:56;99298.67;;;12.62;30.51
74881;BME280;63427;49.654;6.596;2024-03-23T13:23:22;99307.77;;;11.47;31.73
74881;BME280;63427;49.654;6.596;2024-03-23T13:28:12;99320.45;;;10.52;33.64
74881;BME280;63427;49.654;6.596;2024-03-23T13:30:38;99326.99;;;11.47;33.74
74881;BME280;63427;49.654;6.596;2024-03-23T13:37:56;99323.33;;;11.90;32.00
74881;BME280;63427;49.654;6.596;2024-03-23T13:40:20;99318.79;;;12.59;31.41
74881;BME280;63427;49.654;6.596;2024-03-23T13:42:45;99307.27;;;12.48;30.84
74881;BME280;63427;49.654;6.596;2024-03-23T13:45:11;99307.68;;;13.59;30.49
74881;BME280;63427;49.654;6.596;2024-03-23T13:47:37;99298.11;;;14.09;29.80
74881;BME280;63427;49.654;6.596;2024-03-23T13:50:02;99298.64;;;14.31;27.86
74881;BME280;63427;49.654;6.596;2024-03-23T13:54:53;99293.30;;;14.59;28.70
74881;BME280;63427;49.654;6.596;2024-03-23T13:59:43;99283.84;;;15.73;27.39
74881;BME280;63427;49.654;6.596;2024-03-23T14:04:34;99277.16;;;16.26;25.80
74881;BME280;63427;49.654;6.596;2024-03-23T14:07:00;99282.74;;;16.47;25.38
74881;BME280;63427;49.654;6.596;2024-03-23T14:09:25;99277.47;;;16.99;24.16
74881;BME280;63427;49.654;6.596;2024-03-23T14:14:16;99297.87;;;15.42;25.49
74881;BME280;63427;49.654;6.596;2024-03-23T14:16:41;99289.82;;;14.93;25.58
74881;BME280;63427;49.654;6.596;2024-03-23T14:19:07;99305.11;;;15.16;26.15
74881;BME280;63427;49.654;6.596;2024-03-23T14:21:32;99321.46;;;14.57;26.00
74881;BME280;63427;49.654;6.596;2024-03-23T14:24:03;99330.50;;;14.15;27.66
74881;BME280;63427;49.654;6.596;2024-03-23T14:26:23;99350.07;;;13.34;28.93
74881;BME280;63427;49.654;6.596;2024-03-23T14:28:49;99370.64;;;12.33;29.78
74881;BME280;63427;49.654;6.596;2024-03-23T14:33:40;99371.18;;;10.79;33.42
74881;BME280;63427;49.654;6.596;2024-03-23T14:36:05;99399.25;;;10.84;33.40
74881;BME280;63427;49.654;6.596;2024-03-23T14:38:31;99397.57;;;10.37;34.04
74881;BME280;63427;49.654;6.596;2024-03-23T14:40:58;99393.82;;;10.02;36.16
74881;BME280;63427;49.654;6.596;2024-03-23T14:43:21;99403.70;;;8.89;37.51
74881;BME280;63427;49.654;6.596;2024-03-23T14:48:13;99407.04;;;8.29;40.00
74881;BME280;63427;49.654;6.596;2024-03-23T14:50:38;99379.83;;;8.80;38.58
74881;BME280;63427;49.654;6.596;2024-03-23T14:53:04;99346.99;;;8.97;37.59
74881;BME280;63427;49.654;6.596;2024-03-23T15:05:12;99322.77;;;10.44;36.96
74881;BME280;63427;49.654;6.596;2024-03-23T15:07:40;99324.49;;;10.37;36.04
74881;BME280;63427;49.654;6.596;2024-03-23T15:10:04;99317.95;;;9.97;36.36
74881;BME280;63427;49.654;6.596;2024-03-23T15:12:29;99315.29;;;9.53;37.24
74881;BME280;63427;49.654;6.596;2024-03-23T15:17:20;99316.33;;;9.21;38.43
74881;BME280;63427;49.654;6.596;2024-03-23T15:19:46;99307.49;;;9.57;38.98
74881;BME280;63427;49.654;6.596;2024-03-23T15:24:38;99293.01;;;9.69;38.67
74881;BME280;63427;49.654;6.596;2024-03-23T15:27:03;99300.70;;;9.67;38.57
74881;BME280;63427;49.654;6.596;2024-03-23T15:29:29;99299.90;;;9.62;38.79
74881;BME280;63427;49.654;6.596;2024-03-23T15:32:01;99299.28;;;9.94;38.95
74881;BME280;63427;49.654;6.596;2024-03-23T15:36:46;99297.73;;;9.11;38.60
74881;BME280;63427;49.654;6.596;2024-03-23T15:39:11;99282.97;;;9.44;39.39
74881;BME280;63427;49.654;6.596;2024-03-23T15:41:38;99276.69;;;9.00;40.19
74881;BME280;63427;49.654;6.596;2024-03-23T15:46:28;99251.05;;;7.82;41.40
74881;BME280;63427;49.654;6.596;2024-03-23T15:48:54;99242.93;;;8.33;42.29
74881;BME280;63427;49.654;6.596;2024-03-23T15:51:20;99246.51;;;8.65;41.29
74881;BME280;63427;49.654;6.596;2024-03-23T15:53:45;99248.73;;;8.11;43.27
74881;BME280;63427;49.654;6.596;2024-03-23T15:56:11;99247.97;;;8.54;42.20
74881;BME280;63427;49.654;6.596;2024-03-23T15:58:37;99253.56;;;8.62;41.27
74881;BME280;63427;49.654;6.596;2024-03-23T16:03:38;99248.05;;;9.14;40.74
74881;BME280;63427;49.654;6.596;2024-03-23T16:06:01;99245.22;;;8.66;41.42
74881;BME280;63427;49.654;6.596;2024-03-23T16:08:20;99238.13;;;8.80;42.10
74881;BME280;63427;49.654;6.596;2024-03-23T16:11:01;99238.32;;;9.19;40.36
74881;BME280;63427;49.654;6.596;2024-03-23T16:13:27;99233.02;;;9.34;39.78
74881;BME280;63427;49.654;6.596;2024-03-23T16:15:37;99221.80;;;9.71;39.57
74881;BME280;63427;49.654;6.596;2024-03-23T16:18:10;99223.16;;;9.81;39.03
74881;BME280;63427;49.654;6.596;2024-03-23T16:20:28;99223.16;;;9.63;37.70
74881;BME280;63427;49.654;6.596;2024-03-23T16:22:53;99220.09;;;9.73;38.34
74881;BME280;63427;49.654;6.596;2024-03-23T16:27:45;99219.32;;;9.93;37.24
74881;BME280;63427;49.654;6.596;2024-03-23T16:30:12;99216.54;;;9.97;37.48
74881;BME280;63427;49.654;6.596;2024-03-23T16:32:36;99219.20;;;9.80;37.79
74881;BME280;63427;49.654;6.596;2024-03-23T16:37:28;99219.13;;;9.31;37.55
74881;BME280;63427;49.654;6.596;2024-03-23T16:42:22;99219.48;;;9.13;36.92
74881;BME280;63427;49.654;6.596;2024-03-23T16:44:44;99219.01;;;9.84;37.15
74881;BME280;63427;49.654;6.596;2024-03-23T16:49:36;99219.21;;;8.73;37.43
74881;BME280;63427;49.654;6.596;2024-03-23T16:52:01;99221.01;;;8.82;37.35
74881;BME280;63427;49.654;6.596;2024-03-23T16:54:27;99211.55;;;9.18;37.03
74881;BME280;63427;49.654;6.596;2024-03-23T16:57:03;99214.62;;;9.03;37.48